Liebenthal, KS

11:25 AM CDT on July 24, 2014 (GMT -0500)
Hill City Municipal (KHLC) Elev 2224 ft | 39.37 °N, 99.83 °W | Change Station

Current weather conditions updated 32 minutes ago

Clear
Clear
84 °F
Feels Like 88 °F
N
18
Wind Variable Wind from South
Gusts 25 mph

Today is forecast to be Much Warmer than yesterday.

Today
High -- | Low -- °F
--% Chance of Precip.
Yesterday
High -- | Low -- °F
Precip. -- in
6:32 AM 8:55 PM
Waning Crescent, 5% visible
Pressure 29.95 in
Visibility 10.0 miles
Clouds Clear
Heat Index 88 °F
Dew Point 69 °F
Humidity 61%
Rainfall 0.00 in
Snow Depth Not available.
UV 7 out of 12
Pollen 6.60 out of 12
Air Quality Not available.
Flu Activity Not available.
METAR KHLC 241553Z AUTO 17016G22KT 10SM CLR 29/21 A3002 RMK AO2 SLP142 T02890206

More Conditions Fewer Conditions

Pressure 29.95 in
Visibility 10.0 miles
Clouds Clear
Heat Index 88 °F
Dew Point 69 °F
Humidity 61%
Rainfall 0.00 in
Snow Depth Not available.
UV 7 out of 12
Pollen 6.60 out of 12
Air Quality Not available.
Flu Activity Not available.
METAR KHLC 241553Z AUTO 17016G22KT 10SM CLR 29/21 A3002 RMK AO2 SLP142 T02890206

More Conditions Fewer Conditions

10-Day Weather Forecast

Almanac

Astronomy

Jul. 24, 2014 Rise Set
Actual Time 6:32 AM CDT 8:55 PM CDT
Civil Twilight 6:01 AM CDT 9:25 PM CDT
Nautical Twilight 5:24 AM CDT 10:02 PM CDT
Astronomical Twilight 4:43 AM CDT 10:43 PM CDT
Moon 4:41 AM CDT 7:11 PM CDT
Length of Visible Light 15h 23m
Length of Day
14h 23m
Tomorrow will be 1m 39s shorter.
Waning Crescent, 5% of the Moon is Illuminated
Today
Waning Crescent
Jul 26
New
Aug 3
First Quarter
Aug 10
Full
Aug 17
Last Quarter

Today's Extremes

State Highs State Lows

Community

WunderPhotos

Upload Photos

1,737,056 photos uploaded!

Nearby

Snow Depth

Station Depth Elevation
No new snow has been reported.

Earthquake Activity

City Distance Mag. Time & Date
Harper, Kansas 112 miles 3.3 7:24 AM CDT
2014-07-20
Harper, Kansas 123 miles 3.0 7:24 PM CDT
2014-07-19
Minimum magnitude displayed is 2.5.

Coastal Water Temperatures

Place Temperature
No Stations Reporting

Nearby Weather Stations

Station Location Temp. Heat Index Dew Point Humidity Wind Precip. Elev Updated Type
Rural Ellis Co., Hays, KS 86.4 °F 94 °F 73 °F 65% SE  at  5.8 mph - / hr 2077 ft 11:24 AM CDT Normal
MesoWest YOCEME , Hays, KS 80 °F 78 °F - - North  at  - 0.00 in / hr 2047 ft 10:20 AM CDT MADIS
MesoWest WALKER , Walker, KS 70 °F - - - North  at  - 0.00 in / hr 1941 ft 7:50 AM CDT MADIS
Gorham Tele-Com, Gorham, KS 86.9 °F 93 °F 72 °F 60% NNE  at  11.4 mph 0.00 in / hr 1919 ft 11:25 AM CDT Rapid Fire

Show More Stations Show Fewer Stations